sensor_id;sensor_type;location;lat;lon;timestamp;P1;durP1;ratioP1;P2;durP2;ratioP2
65717;SDS011;52445;52.466;-1.016;2023-02-26T00:01:19;1.27;;;1.10;;
65717;SDS011;52445;52.466;-1.016;2023-02-26T00:03:48;1.73;;;0.43;;
65717;SDS011;52445;52.466;-1.016;2023-02-26T00:06:15;1.67;;;1.27;;
65717;SDS011;52445;52.466;-1.016;2023-02-26T00:08:42;4.57;;;0.70;;
65717;SDS011;52445;52.466;-1.016;2023-02-26T00:11:09;1.98;;;0.50;;
65717;SDS011;52445;52.466;-1.016;2023-02-26T00:13:37;5.18;;;0.50;;
65717;SDS011;52445;52.466;-1.016;2023-02-26T00:16:19;8.13;;;1.25;;
65717;SDS011;52445;52.466;-1.016;2023-02-26T00:18:59;3.70;;;2.15;;
65717;SDS011;52445;52.466;-1.016;2023-02-26T00:21:27;3.60;;;1.70;;
65717;SDS011;52445;52.466;-1.016;2023-02-26T00:23:55;2.00;;;1.30;;
65717;SDS011;52445;52.466;-1.016;2023-02-26T00:26:24;2.88;;;1.55;;
65717;SDS011;52445;52.466;-1.016;2023-02-26T00:28:53;9.02;;;2.25;;
65717;SDS011;52445;52.466;-1.016;2023-02-26T00:31:20;4.93;;;1.52;;
65717;SDS011;52445;52.466;-1.016;2023-02-26T00:33:50;5.05;;;1.60;;
65717;SDS011;52445;52.466;-1.016;2023-02-26T00:42:06;5.55;;;0.80;;
65717;SDS011;52445;52.466;-1.016;2023-02-26T00:44:33;4.65;;;0.50;;
65717;SDS011;52445;52.466;-1.016;2023-02-26T00:47:09;6.35;;;0.73;;
65717;SDS011;52445;52.466;-1.016;2023-02-26T00:49:56;1.70;;;1.48;;
65717;SDS011;52445;52.466;-1.016;2023-02-26T00:52:35;3.10;;;1.88;;
65717;SDS011;52445;52.466;-1.016;2023-02-26T00:55:09;3.58;;;1.63;;
65717;SDS011;52445;52.466;-1.016;2023-02-26T00:57:35;5.63;;;1.88;;
65717;SDS011;52445;52.466;-1.016;2023-02-26T01:00:03;4.40;;;2.05;;
65717;SDS011;52445;52.466;-1.016;2023-02-26T01:05:00;3.78;;;1.38;;
65717;SDS011;52445;52.466;-1.016;2023-02-26T01:07:27;2.40;;;1.63;;
65717;SDS011;52445;52.466;-1.016;2023-02-26T01:09:55;2.85;;;2.10;;
65717;SDS011;52445;52.466;-1.016;2023-02-26T01:12:22;7.22;;;1.98;;
65717;SDS011;52445;52.466;-1.016;2023-02-26T01:14:49;5.40;;;1.60;;
65717;SDS011;52445;52.466;-1.016;2023-02-26T01:17:19;6.57;;;1.95;;
65717;SDS011;52445;52.466;-1.016;2023-02-26T01:25:17;2.35;;;1.15;;
65717;SDS011;52445;52.466;-1.016;2023-02-26T01:27:49;3.47;;;0.77;;
65717;SDS011;52445;52.466;-1.016;2023-02-26T01:30:16;5.55;;;0.75;;
65717;SDS011;52445;52.466;-1.016;2023-02-26T01:35:55;3.75;;;1.10;;
65717;SDS011;52445;52.466;-1.016;2023-02-26T01:41:16;5.95;;;1.17;;
65717;SDS011;52445;52.466;-1.016;2023-02-26T01:49:23;6.55;;;1.30;;
65717;SDS011;52445;52.466;-1.016;2023-02-26T01:51:51;7.05;;;1.27;;
65717;SDS011;52445;52.466;-1.016;2023-02-26T01:54:22;2.97;;;1.23;;
65717;SDS011;52445;52.466;-1.016;2023-02-26T01:56:52;5.28;;;0.90;;
65717;SDS011;52445;52.466;-1.016;2023-02-26T01:59:22;7.20;;;0.70;;
65717;SDS011;52445;52.466;-1.016;2023-02-26T02:01:51;6.97;;;1.13;;
65717;SDS011;52445;52.466;-1.016;2023-02-26T02:04:19;4.20;;;1.20;;
65717;SDS011;52445;52.466;-1.016;2023-02-26T02:06:47;6.53;;;0.50;;
65717;SDS011;52445;52.466;-1.016;2023-02-26T02:09:13;3.13;;;0.90;;
65717;SDS011;52445;52.466;-1.016;2023-02-26T02:11:48;14.75;;;1.10;;
65717;SDS011;52445;52.466;-1.016;2023-02-26T02:14:42;3.55;;;0.82;;
65717;SDS011;52445;52.466;-1.016;2023-02-26T02:23:34;8.02;;;0.88;;
65717;SDS011;52445;52.466;-1.016;2023-02-26T02:26:19;4.13;;;0.47;;
65717;SDS011;52445;52.466;-1.016;2023-02-26T02:31:59;3.97;;;2.75;;
65717;SDS011;52445;52.466;-1.016;2023-02-26T02:37:19;7.40;;;0.90;;
65717;SDS011;52445;52.466;-1.016;2023-02-26T02:40:02;2.85;;;1.30;;
65717;SDS011;52445;52.466;-1.016;2023-02-26T02:42:34;3.25;;;0.90;;
65717;SDS011;52445;52.466;-1.016;2023-02-26T02:45:08;5.25;;;1.60;;
65717;SDS011;52445;52.466;-1.016;2023-02-26T02:47:42;2.80;;;1.08;;
65717;SDS011;52445;52.466;-1.016;2023-02-26T02:50:24;1.35;;;0.63;;
65717;SDS011;52445;52.466;-1.016;2023-02-26T02:53:00;5.75;;;0.70;;
65717;SDS011;52445;52.466;-1.016;2023-02-26T02:55:33;3.17;;;0.82;;
65717;SDS011;52445;52.466;-1.016;2023-02-26T02:58:04;4.25;;;1.02;;
65717;SDS011;52445;52.466;-1.016;2023-02-26T03:00:38;1.67;;;0.95;;
65717;SDS011;52445;52.466;-1.016;2023-02-26T03:03:15;3.35;;;0.95;;
65717;SDS011;52445;52.466;-1.016;2023-02-26T03:05:49;0.65;;;0.25;;
65717;SDS011;52445;52.466;-1.016;2023-02-26T03:08:17;3.47;;;0.70;;
65717;SDS011;52445;52.466;-1.016;2023-02-26T03:10:47;0.73;;;0.40;;
65717;SDS011;52445;52.466;-1.016;2023-02-26T03:13:15;2.78;;;1.10;;
65717;SDS011;52445;52.466;-1.016;2023-02-26T03:19:07;2.33;;;0.82;;
65717;SDS011;52445;52.466;-1.016;2023-02-26T03:25:03;2.58;;;1.40;;
65717;SDS011;52445;52.466;-1.016;2023-02-26T03:33:53;4.70;;;1.40;;
65717;SDS011;52445;52.466;-1.016;2023-02-26T03:39:03;4.55;;;1.42;;
65717;SDS011;52445;52.466;-1.016;2023-02-26T03:41:40;2.88;;;2.67;;
65717;SDS011;52445;52.466;-1.016;2023-02-26T03:44:13;2.72;;;0.50;;
65717;SDS011;52445;52.466;-1.016;2023-02-26T03:46:46;7.50;;;2.45;;
65717;SDS011;52445;52.466;-1.016;2023-02-26T03:49:19;2.55;;;1.70;;
65717;SDS011;52445;52.466;-1.016;2023-02-26T03:51:51;1.48;;;1.30;;
65717;SDS011;52445;52.466;-1.016;2023-02-26T03:54:20;5.35;;;2.38;;
65717;SDS011;52445;52.466;-1.016;2023-02-26T03:56:51;4.40;;;1.77;;
65717;SDS011;52445;52.466;-1.016;2023-02-26T03:59:19;8.93;;;2.53;;
65717;SDS011;52445;52.466;-1.016;2023-02-26T04:07:15;1.95;;;0.82;;
65717;SDS011;52445;52.466;-1.016;2023-02-26T04:09:44;2.53;;;0.50;;
65717;SDS011;52445;52.466;-1.016;2023-02-26T04:12:12;3.03;;;0.98;;
65717;SDS011;52445;52.466;-1.016;2023-02-26T04:14:42;1.63;;;0.40;;
65717;SDS011;52445;52.466;-1.016;2023-02-26T04:17:08;5.05;;;0.80;;
65717;SDS011;52445;52.466;-1.016;2023-02-26T04:19:35;9.30;;;1.05;;
65717;SDS011;52445;52.466;-1.016;2023-02-26T04:22:01;4.00;;;1.05;;
65717;SDS011;52445;52.466;-1.016;2023-02-26T04:24:28;3.15;;;0.50;;
65717;SDS011;52445;52.466;-1.016;2023-02-26T04:26:55;2.00;;;0.88;;
65717;SDS011;52445;52.466;-1.016;2023-02-26T04:29:21;5.18;;;1.10;;
65717;SDS011;52445;52.466;-1.016;2023-02-26T04:31:48;5.70;;;1.42;;
65717;SDS011;52445;52.466;-1.016;2023-02-26T04:34:15;3.47;;;1.02;;
65717;SDS011;52445;52.466;-1.016;2023-02-26T04:36:41;1.25;;;0.43;;
65717;SDS011;52445;52.466;-1.016;2023-02-26T04:39:08;10.65;;;0.82;;
65717;SDS011;52445;52.466;-1.016;2023-02-26T04:41:36;1.05;;;0.50;;
65717;SDS011;52445;52.466;-1.016;2023-02-26T04:44:04;8.77;;;1.08;;
65717;SDS011;52445;52.466;-1.016;2023-02-26T04:46:31;8.68;;;1.20;;
65717;SDS011;52445;52.466;-1.016;2023-02-26T04:48:58;8.23;;;0.65;;
65717;SDS011;52445;52.466;-1.016;2023-02-26T04:51:25;7.40;;;1.05;;
65717;SDS011;52445;52.466;-1.016;2023-02-26T04:53:51;6.05;;;1.00;;
65717;SDS011;52445;52.466;-1.016;2023-02-26T04:56:18;3.63;;;0.60;;
65717;SDS011;52445;52.466;-1.016;2023-02-26T04:58:45;5.60;;;0.93;;
65717;SDS011;52445;52.466;-1.016;2023-02-26T05:01:11;2.95;;;0.93;;
65717;SDS011;52445;52.466;-1.016;2023-02-26T05:03:38;4.85;;;0.75;;
65717;SDS011;52445;52.466;-1.016;2023-02-26T05:06:05;6.57;;;1.92;;
65717;SDS011;52445;52.466;-1.016;2023-02-26T05:08:32;4.57;;;1.25;;
65717;SDS011;52445;52.466;-1.016;2023-02-26T05:10:59;8.43;;;1.33;;
65717;SDS011;52445;52.466;-1.016;2023-02-26T05:13:25;2.17;;;0.70;;
65717;SDS011;52445;52.466;-1.016;2023-02-26T05:15:53;3.53;;;1.13;;
65717;SDS011;52445;52.466;-1.016;2023-02-26T05:18:20;5.35;;;0.55;;
65717;SDS011;52445;52.466;-1.016;2023-02-26T05:20:50;6.10;;;0.52;;
65717;SDS011;52445;52.466;-1.016;2023-02-26T05:23:18;3.88;;;0.50;;
65717;SDS011;52445;52.466;-1.016;2023-02-26T05:25:45;5.95;;;1.05;;
65717;SDS011;52445;52.466;-1.016;2023-02-26T05:28:12;3.80;;;0.73;;
65717;SDS011;52445;52.466;-1.016;2023-02-26T05:30:41;4.38;;;0.85;;
65717;SDS011;52445;52.466;-1.016;2023-02-26T05:33:08;5.28;;;1.10;;
65717;SDS011;52445;52.466;-1.016;2023-02-26T05:35:35;7.68;;;0.95;;
65717;SDS011;52445;52.466;-1.016;2023-02-26T05:38:01;2.92;;;0.73;;
65717;SDS011;52445;52.466;-1.016;2023-02-26T05:40:28;0.52;;;0.20;;
65717;SDS011;52445;52.466;-1.016;2023-02-26T05:42:54;2.55;;;0.63;;
65717;SDS011;52445;52.466;-1.016;2023-02-26T05:45:21;4.70;;;0.98;;
65717;SDS011;52445;52.466;-1.016;2023-02-26T05:47:47;5.40;;;1.00;;
65717;SDS011;52445;52.466;-1.016;2023-02-26T05:50:14;1.95;;;0.57;;
65717;SDS011;52445;52.466;-1.016;2023-02-26T05:52:50;3.10;;;1.85;;
65717;SDS011;52445;52.466;-1.016;2023-02-26T05:55:17;7.78;;;1.70;;
65717;SDS011;52445;52.466;-1.016;2023-02-26T05:57:44;4.40;;;2.35;;
65717;SDS011;52445;52.466;-1.016;2023-02-26T06:00:11;4.60;;;2.47;;
65717;SDS011;52445;52.466;-1.016;2023-02-26T06:02:38;2.38;;;0.82;;
65717;SDS011;52445;52.466;-1.016;2023-02-26T06:05:05;2.95;;;2.22;;
65717;SDS011;52445;52.466;-1.016;2023-02-26T06:07:32;5.22;;;2.38;;
65717;SDS011;52445;52.466;-1.016;2023-02-26T06:09:59;4.88;;;2.13;;
65717;SDS011;52445;52.466;-1.016;2023-02-26T06:12:26;5.18;;;1.15;;
65717;SDS011;52445;52.466;-1.016;2023-02-26T06:14:53;9.07;;;2.47;;
65717;SDS011;52445;52.466;-1.016;2023-02-26T06:17:19;3.40;;;2.22;;
65717;SDS011;52445;52.466;-1.016;2023-02-26T06:19:46;8.60;;;2.15;;
65717;SDS011;52445;52.466;-1.016;2023-02-26T06:22:12;7.95;;;2.38;;
65717;SDS011;52445;52.466;-1.016;2023-02-26T06:24:39;5.30;;;2.00;;
65717;SDS011;52445;52.466;-1.016;2023-02-26T06:27:05;10.25;;;2.15;;
65717;SDS011;52445;52.466;-1.016;2023-02-26T06:29:32;3.60;;;1.83;;
65717;SDS011;52445;52.466;-1.016;2023-02-26T06:31:59;3.95;;;1.90;;
65717;SDS011;52445;52.466;-1.016;2023-02-26T06:34:26;9.07;;;3.08;;
65717;SDS011;52445;52.466;-1.016;2023-02-26T06:36:52;5.78;;;2.28;;
65717;SDS011;52445;52.466;-1.016;2023-02-26T06:39:19;5.32;;;2.75;;
65717;SDS011;52445;52.466;-1.016;2023-02-26T06:41:46;5.03;;;1.73;;
65717;SDS011;52445;52.466;-1.016;2023-02-26T06:44:12;3.88;;;2.35;;
65717;SDS011;52445;52.466;-1.016;2023-02-26T06:46:39;5.35;;;1.98;;
65717;SDS011;52445;52.466;-1.016;2023-02-26T06:49:05;3.92;;;1.95;;
65717;SDS011;52445;52.466;-1.016;2023-02-26T06:51:32;6.53;;;2.17;;
65717;SDS011;52445;52.466;-1.016;2023-02-26T06:53:59;2.42;;;1.58;;
65717;SDS011;52445;52.466;-1.016;2023-02-26T06:56:26;4.30;;;2.53;;
65717;SDS011;52445;52.466;-1.016;2023-02-26T06:58:53;6.68;;;2.20;;
65717;SDS011;52445;52.466;-1.016;2023-02-26T07:01:20;5.68;;;2.45;;
65717;SDS011;52445;52.466;-1.016;2023-02-26T07:03:47;3.90;;;2.17;;
65717;SDS011;52445;52.466;-1.016;2023-02-26T07:06:13;6.82;;;2.38;;
65717;SDS011;52445;52.466;-1.016;2023-02-26T07:09:00;7.35;;;2.47;;
65717;SDS011;52445;52.466;-1.016;2023-02-26T07:11:27;3.78;;;1.80;;
65717;SDS011;52445;52.466;-1.016;2023-02-26T07:13:53;2.88;;;2.15;;
65717;SDS011;52445;52.466;-1.016;2023-02-26T07:16:20;4.72;;;4.32;;
65717;SDS011;52445;52.466;-1.016;2023-02-26T07:18:47;4.20;;;1.63;;
65717;SDS011;52445;52.466;-1.016;2023-02-26T07:21:13;9.10;;;2.30;;
65717;SDS011;52445;52.466;-1.016;2023-02-26T07:23:40;9.00;;;2.20;;
65717;SDS011;52445;52.466;-1.016;2023-02-26T07:26:06;4.20;;;2.05;;
65717;SDS011;52445;52.466;-1.016;2023-02-26T07:28:34;9.40;;;2.35;;
65717;SDS011;52445;52.466;-1.016;2023-02-26T07:31:01;4.82;;;1.77;;
65717;SDS011;52445;52.466;-1.016;2023-02-26T07:33:27;7.45;;;1.67;;
65717;SDS011;52445;52.466;-1.016;2023-02-26T07:35:54;2.08;;;1.48;;
65717;SDS011;52445;52.466;-1.016;2023-02-26T07:38:20;3.83;;;1.50;;
65717;SDS011;52445;52.466;-1.016;2023-02-26T07:40:47;2.97;;;1.88;;
65717;SDS011;52445;52.466;-1.016;2023-02-26T07:43:14;9.60;;;2.17;;
65717;SDS011;52445;52.466;-1.016;2023-02-26T07:45:40;5.47;;;2.28;;
65717;SDS011;52445;52.466;-1.016;2023-02-26T07:48:07;8.20;;;2.55;;
65717;SDS011;52445;52.466;-1.016;2023-02-26T07:50:34;8.57;;;1.75;;
65717;SDS011;52445;52.466;-1.016;2023-02-26T07:53:00;5.70;;;2.95;;
65717;SDS011;52445;52.466;-1.016;2023-02-26T07:55:27;8.48;;;1.88;;
65717;SDS011;52445;52.466;-1.016;2023-02-26T07:57:53;2.92;;;2.33;;
65717;SDS011;52445;52.466;-1.016;2023-02-26T08:00:20;5.80;;;2.85;;
65717;SDS011;52445;52.466;-1.016;2023-02-26T08:02:47;2.88;;;1.05;;
65717;SDS011;52445;52.466;-1.016;2023-02-26T08:05:14;3.92;;;1.50;;
65717;SDS011;52445;52.466;-1.016;2023-02-26T08:07:40;6.35;;;1.27;;
65717;SDS011;52445;52.466;-1.016;2023-02-26T08:10:07;6.35;;;2.05;;
65717;SDS011;52445;52.466;-1.016;2023-02-26T08:12:36;4.10;;;1.63;;
65717;SDS011;52445;52.466;-1.016;2023-02-26T08:15:03;3.25;;;1.67;;
65717;SDS011;52445;52.466;-1.016;2023-02-26T08:17:30;2.50;;;1.35;;
65717;SDS011;52445;52.466;-1.016;2023-02-26T08:19:57;3.63;;;1.75;;
65717;SDS011;52445;52.466;-1.016;2023-02-26T08:22:23;6.82;;;1.02;;
65717;SDS011;52445;52.466;-1.016;2023-02-26T08:24:50;3.10;;;1.38;;
65717;SDS011;52445;52.466;-1.016;2023-02-26T08:27:17;2.60;;;2.15;;
65717;SDS011;52445;52.466;-1.016;2023-02-26T08:29:43;14.15;;;1.67;;
65717;SDS011;52445;52.466;-1.016;2023-02-26T08:32:11;5.47;;;1.95;;
65717;SDS011;52445;52.466;-1.016;2023-02-26T08:34:38;2.95;;;1.92;;
65717;SDS011;52445;52.466;-1.016;2023-02-26T08:37:05;8.23;;;2.38;;
65717;SDS011;52445;52.466;-1.016;2023-02-26T08:39:34;7.93;;;2.45;;
65717;SDS011;52445;52.466;-1.016;2023-02-26T08:42:04;8.85;;;2.30;;
65717;SDS011;52445;52.466;-1.016;2023-02-26T08:44:31;4.88;;;1.73;;
65717;SDS011;52445;52.466;-1.016;2023-02-26T08:46:58;11.05;;;1.50;;
65717;SDS011;52445;52.466;-1.016;2023-02-26T08:49:25;3.88;;;2.15;;
65717;SDS011;52445;52.466;-1.016;2023-02-26T08:51:52;3.72;;;1.77;;
65717;SDS011;52445;52.466;-1.016;2023-02-26T08:54:18;9.93;;;1.50;;
65717;SDS011;52445;52.466;-1.016;2023-02-26T08:56:45;5.20;;;2.20;;
65717;SDS011;52445;52.466;-1.016;2023-02-26T08:59:12;4.55;;;1.92;;
65717;SDS011;52445;52.466;-1.016;2023-02-26T09:01:38;5.88;;;2.05;;
65717;SDS011;52445;52.466;-1.016;2023-02-26T09:04:05;6.78;;;1.73;;
65717;SDS011;52445;52.466;-1.016;2023-02-26T09:06:32;7.57;;;2.45;;
65717;SDS011;52445;52.466;-1.016;2023-02-26T09:08:58;4.90;;;1.70;;
65717;SDS011;52445;52.466;-1.016;2023-02-26T09:11:25;4.22;;;3.45;;
65717;SDS011;52445;52.466;-1.016;2023-02-26T09:13:52;7.90;;;2.17;;
65717;SDS011;52445;52.466;-1.016;2023-02-26T09:16:18;5.70;;;2.47;;
65717;SDS011;52445;52.466;-1.016;2023-02-26T09:18:45;5.68;;;2.03;;
65717;SDS011;52445;52.466;-1.016;2023-02-26T09:21:12;4.43;;;2.22;;
65717;SDS011;52445;52.466;-1.016;2023-02-26T09:23:38;6.35;;;2.03;;
65717;SDS011;52445;52.466;-1.016;2023-02-26T09:26:05;4.35;;;1.85;;
65717;SDS011;52445;52.466;-1.016;2023-02-26T09:28:34;4.30;;;0.60;;
65717;SDS011;52445;52.466;-1.016;2023-02-26T09:31:01;3.58;;;2.33;;
65717;SDS011;52445;52.466;-1.016;2023-02-26T09:33:28;6.15;;;1.77;;
65717;SDS011;52445;52.466;-1.016;2023-02-26T09:35:54;6.22;;;2.65;;
65717;SDS011;52445;52.466;-1.016;2023-02-26T09:38:21;5.72;;;2.13;;
65717;SDS011;52445;52.466;-1.016;2023-02-26T09:40:56;4.43;;;2.17;;
65717;SDS011;52445;52.466;-1.016;2023-02-26T09:46:04;6.30;;;0.75;;
65717;SDS011;52445;52.466;-1.016;2023-02-26T09:48:47;3.85;;;0.63;;
65717;SDS011;52445;52.466;-1.016;2023-02-26T09:51:18;3.47;;;0.65;;
65717;SDS011;52445;52.466;-1.016;2023-02-26T09:53:47;7.20;;;0.82;;
65717;SDS011;52445;52.466;-1.016;2023-02-26T09:56:16;6.70;;;0.95;;
65717;SDS011;52445;52.466;-1.016;2023-02-26T09:58:46;6.95;;;0.68;;
65717;SDS011;52445;52.466;-1.016;2023-02-26T10:01:18;5.03;;;0.70;;
65717;SDS011;52445;52.466;-1.016;2023-02-26T10:12:48;6.65;;;1.00;;
65717;SDS011;52445;52.466;-1.016;2023-02-26T10:20:49;3.72;;;1.02;;
65717;SDS011;52445;52.466;-1.016;2023-02-26T10:23:31;6.43;;;1.90;;
65717;SDS011;52445;52.466;-1.016;2023-02-26T10:26:13;8.57;;;1.95;;
65717;SDS011;52445;52.466;-1.016;2023-02-26T10:28:48;4.03;;;1.23;;
65717;SDS011;52445;52.466;-1.016;2023-02-26T10:34:07;3.97;;;0.43;;
65717;SDS011;52445;52.466;-1.016;2023-02-26T10:42:01;4.18;;;0.70;;
65717;SDS011;52445;52.466;-1.016;2023-02-26T10:44:40;3.60;;;0.50;;
65717;SDS011;52445;52.466;-1.016;2023-02-26T10:50:00;3.13;;;0.75;;
65717;SDS011;52445;52.466;-1.016;2023-02-26T10:52:30;4.15;;;0.73;;
65717;SDS011;52445;52.466;-1.016;2023-02-26T10:55:04;1.50;;;0.75;;
65717;SDS011;52445;52.466;-1.016;2023-02-26T10:58:02;5.13;;;1.05;;
65717;SDS011;52445;52.466;-1.016;2023-02-26T11:00:31;2.17;;;0.75;;
65717;SDS011;52445;52.466;-1.016;2023-02-26T11:05:00;4.03;;;0.90;;
65717;SDS011;52445;52.466;-1.016;2023-02-26T11:07:34;2.58;;;0.50;;
65717;SDS011;52445;52.466;-1.016;2023-02-26T11:10:03;2.92;;;0.70;;
65717;SDS011;52445;52.466;-1.016;2023-02-26T11:12:30;5.10;;;0.45;;
65717;SDS011;52445;52.466;-1.016;2023-02-26T11:14:59;4.43;;;0.52;;
65717;SDS011;52445;52.466;-1.016;2023-02-26T11:17:28;1.38;;;0.32;;
65717;SDS011;52445;52.466;-1.016;2023-02-26T11:19:58;5.03;;;0.30;;
65717;SDS011;52445;52.466;-1.016;2023-02-26T11:24:57;2.35;;;0.82;;
65717;SDS011;52445;52.466;-1.016;2023-02-26T11:27:26;5.57;;;1.23;;
65717;SDS011;52445;52.466;-1.016;2023-02-26T11:29:58;0.98;;;0.30;;
65717;SDS011;52445;52.466;-1.016;2023-02-26T11:32:29;3.05;;;0.40;;
65717;SDS011;52445;52.466;-1.016;2023-02-26T11:37:29;2.88;;;0.50;;
65717;SDS011;52445;52.466;-1.016;2023-02-26T11:42:52;2.35;;;0.35;;
65717;SDS011;52445;52.466;-1.016;2023-02-26T11:45:21;2.40;;;0.52;;
65717;SDS011;52445;52.466;-1.016;2023-02-26T11:47:52;1.33;;;0.65;;
65717;SDS011;52445;52.466;-1.016;2023-02-26T11:50:28;2.30;;;0.28;;
65717;SDS011;52445;52.466;-1.016;2023-02-26T11:52:56;1.52;;;0.52;;
65717;SDS011;52445;52.466;-1.016;2023-02-26T11:55:35;1.10;;;0.43;;
65717;SDS011;52445;52.466;-1.016;2023-02-26T11:58:16;2.22;;;0.45;;
65717;SDS011;52445;52.466;-1.016;2023-02-26T12:00:46;4.45;;;0.60;;
65717;SDS011;52445;52.466;-1.016;2023-02-26T12:03:17;2.40;;;0.68;;
65717;SDS011;52445;52.466;-1.016;2023-02-26T12:05:47;4.43;;;0.80;;
65717;SDS011;52445;52.466;-1.016;2023-02-26T12:08:17;3.97;;;0.30;;
65717;SDS011;52445;52.466;-1.016;2023-02-26T12:19:14;1.83;;;0.43;;
65717;SDS011;52445;52.466;-1.016;2023-02-26T12:25:17;1.00;;;0.52;;
65717;SDS011;52445;52.466;-1.016;2023-02-26T12:30:38;4.15;;;0.43;;
65717;SDS011;52445;52.466;-1.016;2023-02-26T12:36:01;4.13;;;0.50;;
65717;SDS011;52445;52.466;-1.016;2023-02-26T12:38:43;1.80;;;0.60;;
65717;SDS011;52445;52.466;-1.016;2023-02-26T12:41:24;2.20;;;0.95;;
65717;SDS011;52445;52.466;-1.016;2023-02-26T12:44:09;3.90;;;1.45;;
65717;SDS011;52445;52.466;-1.016;2023-02-26T13:08:10;2.10;;;1.95;;
65717;SDS011;52445;52.466;-1.016;2023-02-26T13:13:28;1.20;;;0.60;;
65717;SDS011;52445;52.466;-1.016;2023-02-26T13:18:51;2.67;;;0.75;;
65717;SDS011;52445;52.466;-1.016;2023-02-26T13:21:30;1.88;;;0.80;;
65717;SDS011;52445;52.466;-1.016;2023-02-26T13:24:01;3.72;;;0.30;;
65717;SDS011;52445;52.466;-1.016;2023-02-26T13:26:35;4.40;;;0.57;;
65717;SDS011;52445;52.466;-1.016;2023-02-26T13:29:12;1.25;;;0.65;;
65717;SDS011;52445;52.466;-1.016;2023-02-26T13:31:46;2.65;;;0.20;;
65717;SDS011;52445;52.466;-1.016;2023-02-26T13:34:21;1.08;;;0.30;;
65717;SDS011;52445;52.466;-1.016;2023-02-26T13:37:16;0.73;;;0.47;;
65717;SDS011;52445;52.466;-1.016;2023-02-26T13:51:13;0.63;;;0.35;;
65717;SDS011;52445;52.466;-1.016;2023-02-26T13:53:52;1.95;;;0.50;;
65717;SDS011;52445;52.466;-1.016;2023-02-26T13:59:03;2.85;;;0.40;;
65717;SDS011;52445;52.466;-1.016;2023-02-26T14:01:47;2.40;;;1.42;;
65717;SDS011;52445;52.466;-1.016;2023-02-26T14:06:58;2.10;;;0.52;;
65717;SDS011;52445;52.466;-1.016;2023-02-26T14:17:47;1.95;;;0.30;;
65717;SDS011;52445;52.466;-1.016;2023-02-26T14:20:24;5.80;;;0.40;;
65717;SDS011;52445;52.466;-1.016;2023-02-26T14:23:10;1.30;;;0.50;;
65717;SDS011;52445;52.466;-1.016;2023-02-26T14:33:45;0.40;;;0.40;;
65717;SDS011;52445;52.466;-1.016;2023-02-26T14:36:36;0.40;;;0.40;;
65717;SDS011;52445;52.466;-1.016;2023-02-26T14:39:28;2.40;;;0.40;;
65717;SDS011;52445;52.466;-1.016;2023-02-26T14:42:01;1.25;;;0.60;;
65717;SDS011;52445;52.466;-1.016;2023-02-26T14:44:34;1.85;;;0.45;;
65717;SDS011;52445;52.466;-1.016;2023-02-26T14:47:04;1.70;;;0.40;;
65717;SDS011;52445;52.466;-1.016;2023-02-26T14:49:32;2.75;;;0.47;;
65717;SDS011;52445;52.466;-1.016;2023-02-26T15:06:33;1.17;;;1.10;;
65717;SDS011;52445;52.466;-1.016;2023-02-26T15:22:58;0.82;;;0.30;;
65717;SDS011;52445;52.466;-1.016;2023-02-26T15:25:47;1.83;;;0.43;;
65717;SDS011;52445;52.466;-1.016;2023-02-26T15:28:18;1.52;;;0.57;;
65717;SDS011;52445;52.466;-1.016;2023-02-26T15:30:58;1.85;;;0.47;;
65717;SDS011;52445;52.466;-1.016;2023-02-26T15:33:27;0.90;;;0.63;;
65717;SDS011;52445;52.466;-1.016;2023-02-26T15:35:55;1.33;;;0.55;;
65717;SDS011;52445;52.466;-1.016;2023-02-26T15:38:23;0.85;;;0.38;;
65717;SDS011;52445;52.466;-1.016;2023-02-26T15:40:52;1.73;;;0.43;;
65717;SDS011;52445;52.466;-1.016;2023-02-26T15:43:23;0.50;;;0.40;;
65717;SDS011;52445;52.466;-1.016;2023-02-26T15:45:53;1.13;;;0.40;;
65717;SDS011;52445;52.466;-1.016;2023-02-26T15:48:25;0.75;;;0.63;;
65717;SDS011;52445;52.466;-1.016;2023-02-26T15:50:56;3.03;;;0.40;;
65717;SDS011;52445;52.466;-1.016;2023-02-26T15:56:04;1.75;;;0.40;;
65717;SDS011;52445;52.466;-1.016;2023-02-26T15:58:35;3.05;;;0.30;;
65717;SDS011;52445;52.466;-1.016;2023-02-26T16:01:14;0.77;;;0.60;;
65717;SDS011;52445;52.466;-1.016;2023-02-26T16:03:42;1.48;;;0.30;;
65717;SDS011;52445;52.466;-1.016;2023-02-26T16:06:11;1.42;;;1.08;;
65717;SDS011;52445;52.466;-1.016;2023-02-26T16:08:42;1.65;;;0.40;;
65717;SDS011;52445;52.466;-1.016;2023-02-26T16:11:09;0.57;;;0.57;;
65717;SDS011;52445;52.466;-1.016;2023-02-26T16:13:38;3.42;;;0.45;;
65717;SDS011;52445;52.466;-1.016;2023-02-26T16:16:11;0.40;;;0.38;;
65717;SDS011;52445;52.466;-1.016;2023-02-26T16:18:43;2.80;;;0.95;;
65717;SDS011;52445;52.466;-1.016;2023-02-26T16:21:15;0.90;;;0.82;;
65717;SDS011;52445;52.466;-1.016;2023-02-26T16:26:26;0.57;;;0.57;;
65717;SDS011;52445;52.466;-1.016;2023-02-26T16:28:57;3.75;;;0.82;;
65717;SDS011;52445;52.466;-1.016;2023-02-26T16:31:27;1.25;;;1.15;;
65717;SDS011;52445;52.466;-1.016;2023-02-26T16:34:00;0.90;;;0.85;;
65717;SDS011;52445;52.466;-1.016;2023-02-26T16:36:30;0.80;;;0.77;;
65717;SDS011;52445;52.466;-1.016;2023-02-26T16:41:41;2.75;;;0.90;;
65717;SDS011;52445;52.466;-1.016;2023-02-26T16:46:59;3.15;;;0.73;;
65717;SDS011;52445;52.466;-1.016;2023-02-26T16:49:31;1.65;;;0.45;;
65717;SDS011;52445;52.466;-1.016;2023-02-26T16:52:00;1.88;;;0.52;;
65717;SDS011;52445;52.466;-1.016;2023-02-26T16:54:30;1.08;;;0.93;;
65717;SDS011;52445;52.466;-1.016;2023-02-26T16:59:47;2.83;;;1.65;;
65717;SDS011;52445;52.466;-1.016;2023-02-26T17:02:19;2.13;;;1.77;;
65717;SDS011;52445;52.466;-1.016;2023-02-26T17:04:50;0.43;;;0.20;;
65717;SDS011;52445;52.466;-1.016;2023-02-26T17:09:57;2.28;;;0.43;;
65717;SDS011;52445;52.466;-1.016;2023-02-26T17:12:29;1.13;;;0.30;;
65717;SDS011;52445;52.466;-1.016;2023-02-26T17:17:55;0.45;;;0.35;;
65717;SDS011;52445;52.466;-1.016;2023-02-26T17:20:23;1.52;;;0.75;;
65717;SDS011;52445;52.466;-1.016;2023-02-26T17:22:51;0.82;;;0.75;;
65717;SDS011;52445;52.466;-1.016;2023-02-26T17:25:18;3.13;;;0.40;;
65717;SDS011;52445;52.466;-1.016;2023-02-26T17:27:46;1.65;;;0.28;;
65717;SDS011;52445;52.466;-1.016;2023-02-26T17:30:14;0.70;;;0.28;;
65717;SDS011;52445;52.466;-1.016;2023-02-26T17:32:43;1.73;;;0.22;;
65717;SDS011;52445;52.466;-1.016;2023-02-26T17:35:11;0.60;;;0.32;;
65717;SDS011;52445;52.466;-1.016;2023-02-26T17:37:41;3.42;;;0.35;;
65717;SDS011;52445;52.466;-1.016;2023-02-26T17:40:17;1.73;;;0.95;;
65717;SDS011;52445;52.466;-1.016;2023-02-26T17:42:47;3.88;;;0.57;;
65717;SDS011;52445;52.466;-1.016;2023-02-26T17:45:15;4.85;;;0.45;;
65717;SDS011;52445;52.466;-1.016;2023-02-26T17:47:42;1.50;;;0.70;;
65717;SDS011;52445;52.466;-1.016;2023-02-26T17:50:17;1.70;;;0.40;;
65717;SDS011;52445;52.466;-1.016;2023-02-26T17:52:50;1.15;;;0.40;;
65717;SDS011;52445;52.466;-1.016;2023-02-26T17:55:16;2.35;;;0.50;;
65717;SDS011;52445;52.466;-1.016;2023-02-26T17:57:43;4.28;;;2.78;;
65717;SDS011;52445;52.466;-1.016;2023-02-26T18:00:10;3.95;;;1.98;;
65717;SDS011;52445;52.466;-1.016;2023-02-26T18:02:40;4.60;;;2.10;;
65717;SDS011;52445;52.466;-1.016;2023-02-26T18:05:07;2.72;;;1.45;;
65717;SDS011;52445;52.466;-1.016;2023-02-26T18:07:34;3.72;;;1.88;;
65717;SDS011;52445;52.466;-1.016;2023-02-26T18:10:02;0.85;;;0.68;;
65717;SDS011;52445;52.466;-1.016;2023-02-26T18:12:30;4.78;;;1.17;;
65717;SDS011;52445;52.466;-1.016;2023-02-26T18:14:56;3.00;;;1.27;;
65717;SDS011;52445;52.466;-1.016;2023-02-26T18:17:24;2.42;;;0.77;;
65717;SDS011;52445;52.466;-1.016;2023-02-26T18:19:53;2.90;;;0.90;;
65717;SDS011;52445;52.466;-1.016;2023-02-26T18:22:20;2.15;;;0.68;;
65717;SDS011;52445;52.466;-1.016;2023-02-26T18:24:51;7.18;;;1.45;;
65717;SDS011;52445;52.466;-1.016;2023-02-26T18:27:18;3.47;;;1.65;;
65717;SDS011;52445;52.466;-1.016;2023-02-26T18:29:47;4.38;;;1.08;;
65717;SDS011;52445;52.466;-1.016;2023-02-26T18:32:16;3.95;;;1.10;;